sensor_id;sensor_type;location;lat;lon;timestamp;pressure;altitude;pressure_sealevel;temperature;humidity
78313;BME280;67568;47.438;21.408;2023-07-13T00:01:32;100280.41;;;21.90;88.06
78313;BME280;67568;47.438;21.408;2023-07-13T00:03:59;100282.00;;;21.88;88.23
78313;BME280;67568;47.438;21.408;2023-07-13T00:06:26;100293.28;;;21.88;88.16
78313;BME280;67568;47.438;21.408;2023-07-13T00:08:53;100302.19;;;21.90;88.18
78313;BME280;67568;47.438;21.408;2023-07-13T00:11:20;100303.44;;;21.92;88.43
78313;BME280;67568;47.438;21.408;2023-07-13T00:13:50;100305.03;;;21.93;88.25
78313;BME280;67568;47.438;21.408;2023-07-13T00:16:17;100311.91;;;21.92;89.12
78313;BME280;67568;47.438;21.408;2023-07-13T00:18:45;100309.06;;;21.92;88.26
78313;BME280;67568;47.438;21.408;2023-07-13T00:21:12;100311.44;;;21.90;88.27
78313;BME280;67568;47.438;21.408;2023-07-13T00:23:40;100314.72;;;21.92;88.43
78313;BME280;67568;47.438;21.408;2023-07-13T00:26:10;100303.00;;;21.90;88.18
78313;BME280;67568;47.438;21.408;2023-07-13T00:28:38;100308.63;;;21.90;88.18
78313;BME280;67568;47.438;21.408;2023-07-13T00:31:05;100317.53;;;21.92;88.09
78313;BME280;67568;47.438;21.408;2023-07-13T00:33:35;100323.19;;;21.92;88.16
78313;BME280;67568;47.438;21.408;2023-07-13T00:36:02;100311.91;;;21.92;87.68
78313;BME280;67568;47.438;21.408;2023-07-13T00:38:29;100317.53;;;21.92;87.27
78313;BME280;67568;47.438;21.408;2023-07-13T00:40:56;100311.91;;;21.92;87.67
78313;BME280;67568;47.438;21.408;2023-07-13T00:43:27;100300.16;;;21.90;87.96
78313;BME280;67568;47.438;21.408;2023-07-13T00:46:15;100310.38;;;21.72;88.80
78313;BME280;67568;47.438;21.408;2023-07-13T00:48:43;100306.22;;;21.66;88.32
78313;BME280;67568;47.438;21.408;2023-07-13T00:51:12;100304.25;;;21.66;88.35
78313;BME280;67568;47.438;21.408;2023-07-13T00:53:40;100306.00;;;21.51;88.70
78313;BME280;67568;47.438;21.408;2023-07-13T00:56:10;100300.44;;;21.32;89.41
78313;BME280;67568;47.438;21.408;2023-07-13T00:58:38;100282.63;;;21.28;89.60
78313;BME280;67568;47.438;21.408;2023-07-13T01:01:08;100294.03;;;21.35;88.83
78313;BME280;67568;47.438;21.408;2023-07-13T01:03:35;100292.16;;;21.43;88.46
78313;BME280;67568;47.438;21.408;2023-07-13T01:06:02;100288.66;;;21.26;89.37
78313;BME280;67568;47.438;21.408;2023-07-13T01:08:29;100284.44;;;21.17;89.51
78313;BME280;67568;47.438;21.408;2023-07-13T01:10:57;100287.97;;;21.10;89.73
78313;BME280;67568;47.438;21.408;2023-07-13T01:13:24;100281.22;;;21.15;89.58
78313;BME280;67568;47.438;21.408;2023-07-13T01:15:53;100280.88;;;21.20;89.25
78313;BME280;67568;47.438;21.408;2023-07-13T01:18:23;100282.28;;;21.06;90.12
78313;BME280;67568;47.438;21.408;2023-07-13T01:20:57;100284.59;;;21.01;90.88
78313;BME280;67568;47.438;21.408;2023-07-13T01:23:26;100284.44;;;20.94;90.86
78313;BME280;67568;47.438;21.408;2023-07-13T01:25:53;100281.69;;;20.97;90.56
78313;BME280;67568;47.438;21.408;2023-07-13T01:28:21;100275.88;;;21.09;89.70
78313;BME280;67568;47.438;21.408;2023-07-13T01:30:48;100271.63;;;21.19;88.85
78313;BME280;67568;47.438;21.408;2023-07-13T01:33:17;100272.88;;;21.22;88.87
78313;BME280;67568;47.438;21.408;2023-07-13T01:35:45;100277.94;;;21.13;89.06
78313;BME280;67568;47.438;21.408;2023-07-13T01:38:14;100279.94;;;20.89;91.18
78313;BME280;67568;47.438;21.408;2023-07-13T01:40:42;100274.81;;;20.95;90.60
78313;BME280;67568;47.438;21.408;2023-07-13T01:43:12;100278.25;;;21.07;89.41
78313;BME280;67568;47.438;21.408;2023-07-13T01:45:39;100273.22;;;20.97;90.42
78313;BME280;67568;47.438;21.408;2023-07-13T01:48:06;100271.88;;;21.10;89.66
78313;BME280;67568;47.438;21.408;2023-07-13T01:50:34;100271.81;;;21.07;89.70
78313;BME280;67568;47.438;21.408;2023-07-13T01:53:01;100267.84;;;21.11;89.44
78313;BME280;67568;47.438;21.408;2023-07-13T01:55:31;100268.69;;;21.12;89.24
78313;BME280;67568;47.438;21.408;2023-07-13T01:57:58;100276.88;;;20.98;90.72
78313;BME280;67568;47.438;21.408;2023-07-13T02:00:24;100280.38;;;20.91;90.81
78313;BME280;67568;47.438;21.408;2023-07-13T02:02:51;100274.31;;;20.89;90.83
78313;BME280;67568;47.438;21.408;2023-07-13T02:05:26;100273.41;;;20.85;92.05
78313;BME280;67568;47.438;21.408;2023-07-13T02:07:52;100277.78;;;20.82;92.17
78313;BME280;67568;47.438;21.408;2023-07-13T02:10:19;100281.41;;;20.83;91.77
78313;BME280;67568;47.438;21.408;2023-07-13T02:13:04;100291.38;;;21.00;91.09
78313;BME280;67568;47.438;21.408;2023-07-13T02:15:30;100287.53;;;21.08;90.29
78313;BME280;67568;47.438;21.408;2023-07-13T02:17:57;100275.09;;;21.09;90.26
78313;BME280;67568;47.438;21.408;2023-07-13T02:20:25;100275.13;;;21.13;90.24
78313;BME280;67568;47.438;21.408;2023-07-13T02:22:52;100278.75;;;21.13;90.64
78313;BME280;67568;47.438;21.408;2023-07-13T02:25:25;100294.56;;;21.18;90.23
78313;BME280;67568;47.438;21.408;2023-07-13T02:27:52;100291.34;;;21.19;90.23
78313;BME280;67568;47.438;21.408;2023-07-13T02:30:19;100295.41;;;21.22;89.81
78313;BME280;67568;47.438;21.408;2023-07-13T02:32:46;100299.84;;;21.23;90.07
78313;BME280;67568;47.438;21.408;2023-07-13T02:35:13;100304.81;;;21.29;90.23
78313;BME280;67568;47.438;21.408;2023-07-13T02:37:40;100310.88;;;21.31;90.09
78313;BME280;67568;47.438;21.408;2023-07-13T02:40:08;100318.16;;;21.32;90.42
78313;BME280;67568;47.438;21.408;2023-07-13T02:42:35;100316.69;;;21.39;89.82
78313;BME280;67568;47.438;21.408;2023-07-13T02:45:07;100303.44;;;21.43;89.91
78313;BME280;67568;47.438;21.408;2023-07-13T02:47:34;100310.78;;;21.47;89.42
78313;BME280;67568;47.438;21.408;2023-07-13T02:50:03;100301.88;;;21.22;91.53
78313;BME280;67568;47.438;21.408;2023-07-13T02:52:30;100332.25;;;21.32;90.78
78313;BME280;67568;47.438;21.408;2023-07-13T02:54:56;100371.31;;;21.34;90.70
78313;BME280;67568;47.438;21.408;2023-07-13T02:57:23;100363.84;;;21.42;90.62
78313;BME280;67568;47.438;21.408;2023-07-13T02:59:50;100310.66;;;21.40;91.41
78313;BME280;67568;47.438;21.408;2023-07-13T03:02:17;100279.31;;;21.22;92.70
78313;BME280;67568;47.438;21.408;2023-07-13T03:04:43;100289.16;;;21.32;92.07
78313;BME280;67568;47.438;21.408;2023-07-13T03:07:10;100298.31;;;21.48;91.07
78313;BME280;67568;47.438;21.408;2023-07-13T03:09:37;100292.03;;;21.59;90.56
78313;BME280;67568;47.438;21.408;2023-07-13T03:12:10;100259.00;;;21.59;91.06
78313;BME280;67568;47.438;21.408;2023-07-13T03:14:36;100242.84;;;21.56;90.85
78313;BME280;67568;47.438;21.408;2023-07-13T03:17:04;100263.88;;;21.62;90.39
78313;BME280;67568;47.438;21.408;2023-07-13T03:19:30;100266.81;;;21.69;90.33
78313;BME280;67568;47.438;21.408;2023-07-13T03:21:58;100266.09;;;21.76;89.72
78313;BME280;67568;47.438;21.408;2023-07-13T03:24:24;100268.59;;;21.81;89.69
78313;BME280;67568;47.438;21.408;2023-07-13T03:26:51;100271.88;;;21.83;89.82
78313;BME280;67568;47.438;21.408;2023-07-13T03:29:18;100281.13;;;21.84;89.69
78313;BME280;67568;47.438;21.408;2023-07-13T03:31:45;100283.19;;;21.87;89.67
78313;BME280;67568;47.438;21.408;2023-07-13T03:34:12;100273.53;;;21.88;89.43
78313;BME280;67568;47.438;21.408;2023-07-13T03:36:39;100278.84;;;21.93;89.45
78313;BME280;67568;47.438;21.408;2023-07-13T03:39:06;100285.09;;;21.79;90.59
78313;BME280;67568;47.438;21.408;2023-07-13T03:41:35;100278.16;;;21.73;91.08
78313;BME280;67568;47.438;21.408;2023-07-13T03:44:02;100277.06;;;21.81;90.38
78313;BME280;67568;47.438;21.408;2023-07-13T03:46:29;100273.94;;;21.86;90.17
78313;BME280;67568;47.438;21.408;2023-07-13T03:48:57;100267.53;;;21.89;90.06
78313;BME280;67568;47.438;21.408;2023-07-13T03:51:24;100266.75;;;21.92;89.98
78313;BME280;67568;47.438;21.408;2023-07-13T03:53:51;100270.81;;;21.95;89.64
78313;BME280;67568;47.438;21.408;2023-07-13T03:56:18;100271.19;;;21.93;89.93
78313;BME280;67568;47.438;21.408;2023-07-13T03:58:47;100268.38;;;21.93;89.90
78313;BME280;67568;47.438;21.408;2023-07-13T04:01:16;100278.88;;;21.96;89.67
78313;BME280;67568;47.438;21.408;2023-07-13T04:03:46;100268.00;;;21.95;89.76
78313;BME280;67568;47.438;21.408;2023-07-13T04:06:20;100259.13;;;21.96;89.88
78313;BME280;67568;47.438;21.408;2023-07-13T04:08:50;100257.97;;;21.97;89.68
78313;BME280;67568;47.438;21.408;2023-07-13T04:11:18;100270.91;;;22.02;89.31
78313;BME280;67568;47.438;21.408;2023-07-13T04:13:48;100260.81;;;22.01;89.59
78313;BME280;67568;47.438;21.408;2023-07-13T04:16:15;100251.88;;;21.95;89.74
78313;BME280;67568;47.438;21.408;2023-07-13T04:18:43;100266.03;;;21.99;89.53
78313;BME280;67568;47.438;21.408;2023-07-13T04:21:11;100270.91;;;22.02;89.55
78313;BME280;67568;47.438;21.408;2023-07-13T04:23:40;100266.06;;;22.02;89.24
78313;BME280;67568;47.438;21.408;2023-07-13T04:26:07;100266.03;;;21.99;89.82
78313;BME280;67568;47.438;21.408;2023-07-13T04:28:35;100268.13;;;22.06;89.46
78313;BME280;67568;47.438;21.408;2023-07-13T04:31:02;100263.72;;;22.08;88.94
78313;BME280;67568;47.438;21.408;2023-07-13T04:33:29;100266.19;;;22.10;89.05
78313;BME280;67568;47.438;21.408;2023-07-13T04:35:56;100260.56;;;22.13;89.14
78313;BME280;67568;47.438;21.408;2023-07-13T04:38:25;100258.78;;;21.98;89.91
78313;BME280;67568;47.438;21.408;2023-07-13T04:40:58;100261.81;;;22.16;88.52
78313;BME280;67568;47.438;21.408;2023-07-13T04:43:26;100261.03;;;22.15;89.02
78313;BME280;67568;47.438;21.408;2023-07-13T04:45:54;100262.50;;;22.36;88.54
78313;BME280;67568;47.438;21.408;2023-07-13T04:48:22;100260.59;;;22.43;88.33
78313;BME280;67568;47.438;21.408;2023-07-13T04:50:57;100247.88;;;22.60;87.44
78313;BME280;67568;47.438;21.408;2023-07-13T04:53:24;100236.13;;;22.55;88.43
78313;BME280;67568;47.438;21.408;2023-07-13T04:55:54;100236.25;;;22.65;88.04
78313;BME280;67568;47.438;21.408;2023-07-13T04:58:22;100234.69;;;22.72;87.67
78313;BME280;67568;47.438;21.408;2023-07-13T05:00:50;100235.28;;;22.92;87.21
78313;BME280;67568;47.438;21.408;2023-07-13T05:03:17;100230.97;;;23.05;85.93
78313;BME280;67568;47.438;21.408;2023-07-13T05:06:08;100235.06;;;22.70;87.48
78313;BME280;67568;47.438;21.408;2023-07-13T05:08:35;100242.09;;;22.87;87.12
78313;BME280;67568;47.438;21.408;2023-07-13T05:11:03;100253.66;;;23.08;85.87
78313;BME280;67568;47.438;21.408;2023-07-13T05:13:30;100254.16;;;23.21;86.06
78313;BME280;67568;47.438;21.408;2023-07-13T05:15:59;100266.91;;;23.49;84.59
78313;BME280;67568;47.438;21.408;2023-07-13T05:18:27;100280.28;;;23.59;83.96
78313;BME280;67568;47.438;21.408;2023-07-13T05:21:06;100276.75;;;23.69;82.94
78313;BME280;67568;47.438;21.408;2023-07-13T05:23:35;100292.25;;;23.83;83.03
78313;BME280;67568;47.438;21.408;2023-07-13T05:26:02;100320.13;;;23.88;82.53
78313;BME280;67568;47.438;21.408;2023-07-13T05:28:35;100333.09;;;23.89;82.27
78313;BME280;67568;47.438;21.408;2023-07-13T05:31:07;100337.47;;;23.79;82.06
78313;BME280;67568;47.438;21.408;2023-07-13T05:33:34;100349.22;;;23.85;82.25
78313;BME280;67568;47.438;21.408;2023-07-13T05:36:01;100360.16;;;23.83;81.92
78313;BME280;67568;47.438;21.408;2023-07-13T05:38:29;100367.94;;;23.96;81.36
78313;BME280;67568;47.438;21.408;2023-07-13T05:40:56;100371.16;;;23.95;81.34
78313;BME280;67568;47.438;21.408;2023-07-13T05:43:23;100377.53;;;23.85;81.56
78313;BME280;67568;47.438;21.408;2023-07-13T05:45:56;100372.84;;;23.62;82.75
78313;BME280;67568;47.438;21.408;2023-07-13T05:48:26;100365.78;;;23.38;83.61
78313;BME280;67568;47.438;21.408;2023-07-13T05:50:56;100370.16;;;23.28;84.88
78313;BME280;67568;47.438;21.408;2023-07-13T05:53:23;100370.81;;;23.15;85.87
78313;BME280;67568;47.438;21.408;2023-07-13T05:55:49;100370.88;;;23.22;85.04
78313;BME280;67568;47.438;21.408;2023-07-13T05:58:17;100355.56;;;23.26;84.97
78313;BME280;67568;47.438;21.408;2023-07-13T06:00:45;100352.59;;;23.53;84.68
78313;BME280;67568;47.438;21.408;2023-07-13T06:03:15;100343.38;;;23.60;84.50
78313;BME280;67568;47.438;21.408;2023-07-13T06:05:42;100329.25;;;23.67;84.27
78313;BME280;67568;47.438;21.408;2023-07-13T06:08:09;100319.69;;;23.78;83.68
78313;BME280;67568;47.438;21.408;2023-07-13T06:10:38;100313.75;;;24.01;82.47
78313;BME280;67568;47.438;21.408;2023-07-13T06:13:05;100303.69;;;24.08;82.23
78313;BME280;67568;47.438;21.408;2023-07-13T08:23:10;100254.66;;;21.16;98.04
78313;BME280;67568;47.438;21.408;2023-07-13T08:25:38;100240.88;;;21.10;99.01
78313;BME280;67568;47.438;21.408;2023-07-13T08:28:05;100274.38;;;21.16;99.47
78313;BME280;67568;47.438;21.408;2023-07-13T08:30:32;100263.09;;;21.16;99.27
78313;BME280;67568;47.438;21.408;2023-07-13T08:32:59;100276.69;;;21.10;100.00
78313;BME280;67568;47.438;21.408;2023-07-13T08:35:26;100268.03;;;21.22;100.00
78313;BME280;67568;47.438;21.408;2023-07-13T08:37:53;100277.66;;;21.18;100.00
78313;BME280;67568;47.438;21.408;2023-07-13T08:40:23;100289.56;;;21.34;99.97
78313;BME280;67568;47.438;21.408;2023-07-13T08:42:58;100281.13;;;21.34;98.82
78313;BME280;67568;47.438;21.408;2023-07-13T08:45:47;100298.16;;;21.64;97.75
78313;BME280;67568;47.438;21.408;2023-07-13T08:53:39;100289.41;;;21.99;96.99
78313;BME280;67568;47.438;21.408;2023-07-13T08:56:11;100292.19;;;22.22;94.92
78313;BME280;67568;47.438;21.408;2023-07-13T08:58:44;100283.09;;;22.36;94.52
78313;BME280;67568;47.438;21.408;2023-07-13T09:04:45;100282.31;;;22.73;93.38
78313;BME280;67568;47.438;21.408;2023-07-13T09:10:30;100288.41;;;23.12;92.39
78313;BME280;67568;47.438;21.408;2023-07-13T09:15:48;100273.00;;;23.51;90.59
78313;BME280;67568;47.438;21.408;2023-07-13T09:18:35;100265.38;;;23.62;90.79
78313;BME280;67568;47.438;21.408;2023-07-13T09:21:16;100267.50;;;23.72;89.76
78313;BME280;67568;47.438;21.408;2023-07-13T09:23:48;100274.91;;;23.91;88.91
78313;BME280;67568;47.438;21.408;2023-07-13T09:26:25;100280.28;;;24.14;87.61
78313;BME280;67568;47.438;21.408;2023-07-13T09:28:59;100269.03;;;24.29;87.57
78313;BME280;67568;47.438;21.408;2023-07-13T09:31:36;100271.53;;;24.44;87.25
78313;BME280;67568;47.438;21.408;2023-07-13T09:34:13;100265.91;;;24.59;84.88
78313;BME280;67568;47.438;21.408;2023-07-13T09:36:40;100259.50;;;24.80;85.53
78313;BME280;67568;47.438;21.408;2023-07-13T09:39:29;100259.94;;;24.82;84.77
78313;BME280;67568;47.438;21.408;2023-07-13T09:42:18;100268.38;;;24.60;84.81
78313;BME280;67568;47.438;21.408;2023-07-13T09:44:59;100270.78;;;24.51;83.65
78313;BME280;67568;47.438;21.408;2023-07-13T09:47:30;100270.81;;;24.73;83.65
78313;BME280;67568;47.438;21.408;2023-07-13T09:50:03;100256.69;;;24.83;83.02
78313;BME280;67568;47.438;21.408;2023-07-13T09:52:45;100269.63;;;24.81;81.67
78313;BME280;67568;47.438;21.408;2023-07-13T09:55:34;100265.16;;;24.73;81.32
78313;BME280;67568;47.438;21.408;2023-07-13T10:00:54;100272.47;;;24.84;81.14
78313;BME280;67568;47.438;21.408;2023-07-13T10:03:24;100271.69;;;24.95;80.38
78313;BME280;67568;47.438;21.408;2023-07-13T10:05:52;100266.81;;;24.88;79.71
78313;BME280;67568;47.438;21.408;2023-07-13T10:08:24;100268.06;;;25.12;79.15
78313;BME280;67568;47.438;21.408;2023-07-13T10:11:02;100271.34;;;25.25;79.32
78313;BME280;67568;47.438;21.408;2023-07-13T10:13:40;100270.13;;;25.37;77.85
78313;BME280;67568;47.438;21.408;2023-07-13T10:16:12;100257.16;;;25.46;77.33
78313;BME280;67568;47.438;21.408;2023-07-13T10:18:55;100253.50;;;25.56;76.43
78313;BME280;67568;47.438;21.408;2023-07-13T10:21:32;100263.59;;;25.72;76.07
78313;BME280;67568;47.438;21.408;2023-07-13T10:24:23;100266.84;;;25.77;76.46
78313;BME280;67568;47.438;21.408;2023-07-13T10:30:23;100261.97;;;25.92;75.02
78313;BME280;67568;47.438;21.408;2023-07-13T10:32:53;100270.06;;;25.97;73.51
78313;BME280;67568;47.438;21.408;2023-07-13T10:35:22;100278.19;;;25.95;73.91
78313;BME280;67568;47.438;21.408;2023-07-13T10:38:06;100280.59;;;26.08;73.51
78313;BME280;67568;47.438;21.408;2023-07-13T10:40:37;100281.81;;;26.07;73.29
78313;BME280;67568;47.438;21.408;2023-07-13T10:43:11;100278.53;;;26.19;73.93
78313;BME280;67568;47.438;21.408;2023-07-13T10:45:45;100291.03;;;26.43;73.20
78313;BME280;67568;47.438;21.408;2023-07-13T10:48:13;100287.75;;;26.59;73.11
78313;BME280;67568;47.438;21.408;2023-07-13T10:50:46;100292.97;;;26.67;72.87
78313;BME280;67568;47.438;21.408;2023-07-13T10:58:42;100296.00;;;26.14;73.44
78313;BME280;67568;47.438;21.408;2023-07-13T11:01:21;100295.56;;;26.15;73.16
78313;BME280;67568;47.438;21.408;2023-07-13T11:04:00;100289.53;;;26.02;73.73
78313;BME280;67568;47.438;21.408;2023-07-13T11:09:17;100291.59;;;25.88;74.19
78313;BME280;67568;47.438;21.408;2023-07-13T11:11:44;100292.81;;;25.94;74.58
78313;BME280;67568;47.438;21.408;2023-07-13T11:14:30;100291.50;;;26.23;73.86
78313;BME280;67568;47.438;21.408;2023-07-13T11:17:24;100286.94;;;26.55;73.46
78313;BME280;67568;47.438;21.408;2023-07-13T11:22:48;100292.88;;;26.85;71.92
78313;BME280;67568;47.438;21.408;2023-07-13T11:28:17;100299.81;;;26.84;71.83
78313;BME280;67568;47.438;21.408;2023-07-13T11:33:45;100308.84;;;26.65;71.83
78313;BME280;67568;47.438;21.408;2023-07-13T11:36:17;100305.09;;;26.75;71.97
78313;BME280;67568;47.438;21.408;2023-07-13T11:39:16;100301.34;;;26.96;70.99
78313;BME280;67568;47.438;21.408;2023-07-13T11:41:49;100298.25;;;26.69;71.67
78313;BME280;67568;47.438;21.408;2023-07-13T11:44:20;100307.56;;;26.73;71.49
78313;BME280;67568;47.438;21.408;2023-07-13T11:46:53;100304.72;;;26.73;71.27
78313;BME280;67568;47.438;21.408;2023-07-13T11:49:24;100299.13;;;26.55;71.03
78313;BME280;67568;47.438;21.408;2023-07-13T11:51:51;100305.56;;;26.70;70.59
78313;BME280;67568;47.438;21.408;2023-07-13T11:54:26;100312.81;;;26.82;70.09
78313;BME280;67568;47.438;21.408;2023-07-13T11:56:55;100315.97;;;26.95;69.52
78313;BME280;67568;47.438;21.408;2023-07-13T11:59:23;100310.66;;;27.04;68.87
78313;BME280;67568;47.438;21.408;2023-07-13T12:01:55;100302.06;;;27.18;69.15
78313;BME280;67568;47.438;21.408;2023-07-13T12:04:24;100297.06;;;27.29;69.45
78313;BME280;67568;47.438;21.408;2023-07-13T12:07:07;100308.47;;;27.26;67.66
78313;BME280;67568;47.438;21.408;2023-07-13T12:09:34;100297.16;;;27.19;68.99
78313;BME280;67568;47.438;21.408;2023-07-13T12:12:02;100300.50;;;27.03;69.09
78313;BME280;67568;47.438;21.408;2023-07-13T12:14:28;100296.38;;;27.11;68.84
78313;BME280;67568;47.438;21.408;2023-07-13T12:16:58;100297.97;;;27.12;68.47
78313;BME280;67568;47.438;21.408;2023-07-13T12:19:27;100295.59;;;27.07;68.46
78313;BME280;67568;47.438;21.408;2023-07-13T12:21:58;100295.50;;;27.25;68.00
78313;BME280;67568;47.438;21.408;2023-07-13T12:24:28;100300.38;;;27.24;67.01
78313;BME280;67568;47.438;21.408;2023-07-13T12:27:01;100305.88;;;27.46;66.87
78313;BME280;67568;47.438;21.408;2023-07-13T12:29:33;100307.09;;;27.48;64.45
78313;BME280;67568;47.438;21.408;2023-07-13T12:32:00;100298.25;;;27.35;65.15
78313;BME280;67568;47.438;21.408;2023-07-13T12:34:26;100296.88;;;27.54;65.79
78313;BME280;67568;47.438;21.408;2023-07-13T12:37:03;100291.97;;;27.55;64.48
78313;BME280;67568;47.438;21.408;2023-07-13T12:42:24;100292.91;;;27.45;64.30
78313;BME280;67568;47.438;21.408;2023-07-13T12:45:09;100285.59;;;27.44;63.97
78313;BME280;67568;47.438;21.408;2023-07-13T12:47:42;100290.53;;;27.36;64.61
78313;BME280;67568;47.438;21.408;2023-07-13T12:50:16;100293.69;;;27.45;64.84
78313;BME280;67568;47.438;21.408;2023-07-13T12:52:44;100291.66;;;27.49;63.45
78313;BME280;67568;47.438;21.408;2023-07-13T12:55:18;100294.47;;;27.53;63.14
78313;BME280;67568;47.438;21.408;2023-07-13T12:57:57;100286.69;;;27.57;63.58
78313;BME280;67568;47.438;21.408;2023-07-13T13:00:36;100291.22;;;27.51;63.50
78313;BME280;67568;47.438;21.408;2023-07-13T13:03:29;100298.56;;;27.48;63.68
78313;BME280;67568;47.438;21.408;2023-07-13T13:08:45;100301.63;;;27.68;63.17
78313;BME280;67568;47.438;21.408;2023-07-13T13:11:18;100306.06;;;27.73;61.82
78313;BME280;67568;47.438;21.408;2023-07-13T13:13:46;100299.94;;;27.74;61.86
78313;BME280;67568;47.438;21.408;2023-07-13T13:18:56;100307.13;;;27.93;61.42
78313;BME280;67568;47.438;21.408;2023-07-13T13:21:24;100303.78;;;28.02;61.63
78313;BME280;67568;47.438;21.408;2023-07-13T13:23:50;100298.94;;;27.99;61.36
78313;BME280;67568;47.438;21.408;2023-07-13T13:26:18;100296.63;;;27.87;61.66
78313;BME280;67568;47.438;21.408;2023-07-13T13:28:46;100299.31;;;28.01;60.36
78313;BME280;67568;47.438;21.408;2023-07-13T13:31:16;100285.03;;;28.05;60.10
78313;BME280;67568;47.438;21.408;2023-07-13T13:33:44;100278.09;;;28.06;60.05
78313;BME280;67568;47.438;21.408;2023-07-13T13:36:17;100276.03;;;28.10;58.49
78313;BME280;67568;47.438;21.408;2023-07-13T13:38:45;100267.78;;;28.19;58.97
78313;BME280;67568;47.438;21.408;2023-07-13T13:41:13;100274.19;;;28.27;58.76
78313;BME280;67568;47.438;21.408;2023-07-13T13:43:41;100264.47;;;28.24;58.17
78313;BME280;67568;47.438;21.408;2023-07-13T13:46:15;100266.84;;;28.29;57.05
78313;BME280;67568;47.438;21.408;2023-07-13T13:48:43;100256.13;;;28.37;56.54
78313;BME280;67568;47.438;21.408;2023-07-13T13:51:17;100252.44;;;28.40;56.14
78313;BME280;67568;47.438;21.408;2023-07-13T13:53:45;100255.00;;;28.31;54.90
78313;BME280;67568;47.438;21.408;2023-07-13T13:56:17;100264.00;;;28.25;55.65
78313;BME280;67568;47.438;21.408;2023-07-13T13:58:44;100265.13;;;28.35;55.88
78313;BME280;67568;47.438;21.408;2023-07-13T14:01:18;100265.50;;;28.37;54.86
78313;BME280;67568;47.438;21.408;2023-07-13T14:03:46;100254.06;;;28.41;55.80
78313;BME280;67568;47.438;21.408;2023-07-13T14:06:13;100250.41;;;28.44;56.06
78313;BME280;67568;47.438;21.408;2023-07-13T14:08:41;100242.97;;;28.50;56.07
78313;BME280;67568;47.438;21.408;2023-07-13T14:11:12;100240.78;;;28.61;55.59
78313;BME280;67568;47.438;21.408;2023-07-13T14:13:49;100244.50;;;28.58;54.99
78313;BME280;67568;47.438;21.408;2023-07-13T14:16:20;100256.91;;;28.44;56.06
78313;BME280;67568;47.438;21.408;2023-07-13T14:18:48;100246.22;;;28.52;55.60
78313;BME280;67568;47.438;21.408;2023-07-13T14:21:21;100245.38;;;28.52;54.44
78313;BME280;67568;47.438;21.408;2023-07-13T14:23:50;100243.72;;;28.54;56.13
78313;BME280;67568;47.438;21.408;2023-07-13T14:26:23;100235.56;;;28.56;55.42
78313;BME280;67568;47.438;21.408;2023-07-13T14:28:53;100242.91;;;28.54;56.05
78313;BME280;67568;47.438;21.408;2023-07-13T14:31:21;100248.94;;;28.59;55.49
78313;BME280;67568;47.438;21.408;2023-07-13T14:33:54;100242.00;;;28.60;54.88
78313;BME280;67568;47.438;21.408;2023-07-13T14:36:27;100237.81;;;28.68;55.04
78313;BME280;67568;47.438;21.408;2023-07-13T14:38:54;100235.75;;;28.73;54.74
78313;BME280;67568;47.438;21.408;2023-07-13T14:41:21;100232.88;;;28.73;54.84
78313;BME280;67568;47.438;21.408;2023-07-13T14:43:48;100226.38;;;28.72;54.12
78313;BME280;67568;47.438;21.408;2023-07-13T14:51:50;100222.28;;;29.00;53.91
78313;BME280;67568;47.438;21.408;2023-07-13T14:54:17;100210.03;;;29.00;53.12
78313;BME280;67568;47.438;21.408;2023-07-13T14:56:44;100222.19;;;29.07;52.92
78313;BME280;67568;47.438;21.408;2023-07-13T14:59:11;100215.28;;;29.05;52.68
78313;BME280;67568;47.438;21.408;2023-07-13T15:01:38;100226.75;;;29.01;50.37
78313;BME280;67568;47.438;21.408;2023-07-13T15:04:08;100211.19;;;29.06;50.82
78313;BME280;67568;47.438;21.408;2023-07-13T15:09:20;100210.38;;;29.05;51.49
78313;BME280;67568;47.438;21.408;2023-07-13T15:11:46;100215.75;;;29.00;50.36
78313;BME280;67568;47.438;21.408;2023-07-13T15:14:13;100215.41;;;28.98;50.55
78313;BME280;67568;47.438;21.408;2023-07-13T15:16:40;100224.50;;;28.89;51.25
78313;BME280;67568;47.438;21.408;2023-07-13T15:19:09;100225.72;;;28.88;50.23
78313;BME280;67568;47.438;21.408;2023-07-13T15:21:37;100219.53;;;28.93;50.79
78313;BME280;67568;47.438;21.408;2023-07-13T15:24:04;100214.06;;;28.79;49.08
78313;BME280;67568;47.438;21.408;2023-07-13T15:26:31;100212.44;;;28.78;49.23
78313;BME280;67568;47.438;21.408;2023-07-13T15:28:57;100217.28;;;28.81;49.76
78313;BME280;67568;47.438;21.408;2023-07-13T15:31:27;100212.78;;;28.83;49.32
78313;BME280;67568;47.438;21.408;2023-07-13T15:33:56;100207.88;;;28.84;49.30
78313;BME280;67568;47.438;21.408;2023-07-13T15:36:24;100209.84;;;28.87;49.04
78313;BME280;67568;47.438;21.408;2023-07-13T15:38:53;100217.53;;;28.90;49.24
78313;BME280;67568;47.438;21.408;2023-07-13T15:41:27;100216.41;;;28.84;49.24
78313;BME280;67568;47.438;21.408;2023-07-13T15:43:58;100221.53;;;28.69;49.90
78313;BME280;67568;47.438;21.408;2023-07-13T15:46:26;100214.25;;;28.64;49.81
78313;BME280;67568;47.438;21.408;2023-07-13T15:48:54;100218.38;;;28.63;48.96
78313;BME280;67568;47.438;21.408;2023-07-13T15:51:25;100224.81;;;28.67;49.52
78313;BME280;67568;47.438;21.408;2023-07-13T15:54:00;100236.22;;;28.67;49.21
78313;BME280;67568;47.438;21.408;2023-07-13T15:56:29;100243.97;;;28.67;49.68
78313;BME280;67568;47.438;21.408;2023-07-13T15:58:56;100235.47;;;28.63;49.51